Main page
METAR-TAF:

METAR-TAF

Airports :

Worland Municipal Airport

Worland, Wyoming, United States

latitude: 43-57-57N, longitude: 107-57-03W, elevation: 4225 ft

Current weather observation

The report was made 21 minutes ago, at 03:53 UTC
Wind 3 mph from the South
Temperature 39°F
Humidity 70%
Pressure 29.99 in. Hg
Visibility: 10 miles
Clear sky

METAR: KWRL 030353Z AUTO 19003KT 10SM CLR 04/M01 A2999 RMK AO2 SLP175 T00391011

Time: 21:14 (04:14 UTC)

Forecast

The report was made 4 hours and 45 minutes ago, at 23:29 UTC
Forecast valid from 03 at 00 UTC to 03 at 24 UTC
Wind 7 mph from variable directions
Visibility: 6 miles
Few clouds at a height of 8000 ft
Scattered clouds at a height of 15000 ft

TAF: KWRL 022329Z 0300/0324 VRB06KT P6SM FEW080 SCT150

Weather observations and forecasts of more than 4000 airports (METAR and TAF reports).

The available stations are represented by yellow and red dots on the map.

Hover mouse over dot to see the name of the station.

Then click to see weather observations and forecasts.

To change the map : click on the green buttons with a black cross to zoom in, on the green button with a dash to zoom out, or on the green arrows for adjacent maps.


METAR-TAF: